Airfield :







YOU CAN JOIN US ON...

 
LOGIN :

Register | Disclaimer

   EN    FR    IT 

 









Legend :    VFR   Marginal VFR   IFR   Intensive IFR   Very Intensive IFR
Visi :
Ceiling :
>= 8 km
>= 3000ft
5 to 8 km
1000 to 3000 ft
1500m to 5 km
500 to 1000 ft
800 to 1500m
200 to 500 ft
< 800m
< 200 ft
Symbols :   Thunderstorms  Fog  Heavy snow  Heavy precipitations  Wind > 20 kt






- Airport Elevation : 160 ft
- IATA code : YYR


CYYR - Goose Bay

CURRENT METAR :
  • 011500Z 05017G25KT 15SM -RA OVC016 02/M02 A3035 RMK SC8 VIS LWR NW QUAD SLP282

EXPIRED METARs :
  • 011400Z 05018G24KT 15SM -RA OVC018 02/M03 A3036 RMK SC8 VIS LWR NW SLP285
  • 011300Z 04015G26KT 15SM -RA OVC018 02/M03 A3037 RMK SC8 VIS LWR NW QUAD SLP286
  • 011231Z 04020G26KT 15SM -RA OVC018 02/M03 A3037 RMK SC8 -RA INTMT SLP286

TAF AMD TAF CYYR
Valid from the 01 at 14:00 until the 02 at 12:00 UTC


011433Z 0114/0212 05018G30KT P6SM FEW012 OVC020
TEMPO 0114/0116 3SM -RA -DZ BR OVC012
FM011600 04018G30KT 3SM -RASN BR OVC010
PROB30 0116/0120 11/2SM -SNPL OVC008
FM012000 04012G22KT 2SM -RA -DZ BR OVC005
BECMG 0123/0201 05012KT RMK NXT FCST BY 011800Z



MET'MAP, your aeronautical weather chart ! - Copyright ORBIFLY December 2007 - Disclaimer

ORBIFLY MET'MAP TEAM :

Programming & Development : Alexandra Zaïnal
Concept & original design : Baudouin d'Aumeries
Assistance for programming : Marc-Olivier Méhu
Technical & hardware support : Manuel Goepfert

Contact : metmap@orbifly.com




SOURCES & CREDITS :

   NOAA